Time;durP1;ratioP1;P1;durP2;ratioP2;P2;SDS_P1;SDS_P2;PMS_P1;PMS_P2;Temp;Humidity;BMP_temperature;BMP_pressure;BME280_temperature;BME280_humidity;BME280_pressure;Samples;Min_cycle;Max_cycle;Signal;HPM_P1;HPM_P2
2023/03/12 00:01:09;;;;;;;2.90;2.47;;;;;;;;;;5002377;28;19933;-77
2023/03/12 00:03:36;;;;;;;2.97;2.30;;;;;;;;;;5001787;28;20092;-77
2023/03/12 00:06:04;;;;;;;2.92;2.38;;;;;;;;;;5000529;28;20159;-77
2023/03/12 00:08:37;;;;;;;2.38;1.98;;;;;;;;;;5001120;28;20160;-77
2023/03/12 00:11:08;;;;;;;3.33;2.35;;;;;;;;;;5002384;28;20054;-77
2023/03/12 00:13:36;;;;;;;2.97;2.30;;;;;;;;;;4999859;28;20108;-77
2023/03/12 00:16:11;;;;;;;5.68;2.53;;;;;;;;;;5000433;28;20053;-78
2023/03/12 00:18:38;;;;;;;3.00;2.25;;;;;;;;;;5007034;28;20062;-77
2023/03/12 00:21:06;;;;;;;3.38;2.47;;;;;;;;;;5007698;28;20145;-77
2023/03/12 00:23:34;;;;;;;3.55;3.15;;;;;;;;;;5006803;28;20161;-77
2023/03/12 00:26:06;;;;;;;3.08;2.28;;;;;;;;;;5002099;28;20042;-78
2023/03/12 00:28:34;;;;;;;4.35;2.45;;;;;;;;;;5003077;28;20069;-78
2023/03/12 00:31:02;;;;;;;3.20;2.83;;;;;;;;;;5007119;28;20050;-78
2023/03/12 00:33:29;;;;;;;4.00;2.65;;;;;;;;;;5006068;28;20143;-78
2023/03/12 00:36:00;;;;;;;2.63;2.40;;;;;;;;;;4990669;28;20057;-78
2023/03/12 00:38:27;;;;;;;3.47;2.35;;;;;;;;;;4991164;28;20045;-78
2023/03/12 00:40:54;;;;;;;2.80;2.35;;;;;;;;;;5007997;28;20050;-78
2023/03/12 00:43:22;;;;;;;3.28;2.50;;;;;;;;;;4990221;28;20141;-77
2023/03/12 00:45:49;;;;;;;3.83;3.03;;;;;;;;;;4990014;28;20424;-77
2023/03/12 00:48:16;;;;;;;4.65;3.28;;;;;;;;;;4990323;28;20107;-78
2023/03/12 00:50:44;;;;;;;3.33;3.00;;;;;;;;;;5008145;28;20507;-78
2023/03/12 00:53:11;;;;;;;2.80;2.58;;;;;;;;;;5007892;28;20412;-77
2023/03/12 00:55:38;;;;;;;2.45;2.25;;;;;;;;;;5007669;28;20049;-77
2023/03/12 00:58:06;;;;;;;4.25;2.90;;;;;;;;;;4990210;28;20130;-78
2023/03/12 01:00:35;;;;;;;5.75;3.35;;;;;;;;;;4989943;28;20046;-78
2023/03/12 01:03:02;;;;;;;4.38;3.20;;;;;;;;;;4989233;28;20046;-78
2023/03/12 01:05:30;;;;;;;3.80;2.70;;;;;;;;;;5007073;28;20091;-78
2023/03/12 01:08:01;;;;;;;4.10;2.97;;;;;;;;;;5000522;28;20045;-78
2023/03/12 01:10:28;;;;;;;4.78;3.05;;;;;;;;;;5020673;28;20296;-78
2023/03/12 01:12:55;;;;;;;4.70;3.40;;;;;;;;;;5021530;28;20048;-77
2023/03/12 01:15:23;;;;;;;3.88;3.47;;;;;;;;;;4998063;28;20057;-78
2023/03/12 01:17:50;;;;;;;3.83;3.10;;;;;;;;;;4997633;28;20052;-77
2023/03/12 01:20:18;;;;;;;4.00;2.97;;;;;;;;;;5006147;28;20052;-78
2023/03/12 01:22:45;;;;;;;2.83;2.53;;;;;;;;;;5006265;28;20081;-78
2023/03/12 01:25:13;;;;;;;4.88;3.17;;;;;;;;;;5006600;28;20069;-78
2023/03/12 01:27:40;;;;;;;4.22;2.83;;;;;;;;;;5002227;28;20096;-78
2023/03/12 01:30:08;;;;;;;2.53;2.30;;;;;;;;;;5005282;28;20053;-77
2023/03/12 01:32:36;;;;;;;4.28;3.40;;;;;;;;;;5007190;28;20050;-78
2023/03/12 01:35:03;;;;;;;6.43;4.10;;;;;;;;;;5005094;28;20053;-78
2023/03/12 01:37:31;;;;;;;6.43;4.38;;;;;;;;;;5004748;28;20310;-78
2023/03/12 01:39:59;;;;;;;5.05;3.38;;;;;;;;;;5004669;28;20049;-77
2023/03/12 01:42:26;;;;;;;4.10;3.55;;;;;;;;;;5004994;28;20545;-78
2023/03/12 01:44:55;;;;;;;4.28;3.70;;;;;;;;;;5004421;28;20049;-78
2023/03/12 01:47:23;;;;;;;5.93;4.07;;;;;;;;;;4999799;28;20077;-77
2023/03/12 01:49:51;;;;;;;5.88;3.38;;;;;;;;;;5005869;28;20054;-78
2023/03/12 01:52:21;;;;;;;4.93;3.53;;;;;;;;;;5005797;28;20049;-78
2023/03/12 01:54:51;;;;;;;6.97;4.53;;;;;;;;;;4996888;28;20052;-77
2023/03/12 01:57:23;;;;;;;6.28;4.38;;;;;;;;;;5002722;28;20217;-78
2023/03/12 01:59:56;;;;;;;6.50;3.85;;;;;;;;;;4996387;28;20806;-77
2023/03/12 02:02:27;;;;;;;5.72;4.07;;;;;;;;;;4988058;28;20496;-77
2023/03/12 02:05:03;;;;;;;6.00;3.60;;;;;;;;;;4989484;28;20534;-78
2023/03/12 02:07:33;;;;;;;4.70;3.45;;;;;;;;;;4989189;28;20061;-78
2023/03/12 02:10:01;;;;;;;4.32;3.35;;;;;;;;;;4989308;28;20046;-77
2023/03/12 02:12:28;;;;;;;3.55;2.90;;;;;;;;;;5006465;28;20065;-78
2023/03/12 02:14:56;;;;;;;3.58;3.13;;;;;;;;;;5006350;28;20459;-77
2023/03/12 02:17:23;;;;;;;5.80;4.15;;;;;;;;;;4988861;28;20092;-77
2023/03/12 02:20:00;;;;;;;6.05;4.40;;;;;;;;;;4987415;28;20133;-78
2023/03/12 02:22:28;;;;;;;6.53;3.92;;;;;;;;;;5006366;28;20042;-78
2023/03/12 02:25:16;;;;;;;7.03;4.20;;;;;;;;;;5001697;28;20221;-77
2023/03/12 02:27:43;;;;;;;4.43;3.97;;;;;;;;;;5003951;28;20069;-77
2023/03/12 02:30:14;;;;;;;3.67;3.22;;;;;;;;;;4987813;28;20435;-78
2023/03/12 02:32:43;;;;;;;6.30;3.60;;;;;;;;;;4987870;28;20186;-78
2023/03/12 02:35:11;;;;;;;7.10;3.60;;;;;;;;;;4988009;28;20068;-78
2023/03/12 02:37:49;;;;;;;3.97;3.55;;;;;;;;;;4987942;28;20041;-78
2023/03/12 02:40:24;;;;;;;5.10;4.05;;;;;;;;;;4992513;28;20050;-77
2023/03/12 02:42:52;;;;;;;4.45;3.55;;;;;;;;;;4999535;28;20112;-77
2023/03/12 02:45:19;;;;;;;4.28;3.20;;;;;;;;;;5005443;28;20133;-78
2023/03/12 02:47:47;;;;;;;4.57;3.38;;;;;;;;;;5005896;28;20046;-77
2023/03/12 02:50:14;;;;;;;3.55;3.10;;;;;;;;;;5006005;28;20053;-77
2023/03/12 02:52:42;;;;;;;3.20;2.90;;;;;;;;;;5004710;28;20050;-77
2023/03/12 02:55:09;;;;;;;4.00;3.38;;;;;;;;;;5004776;28;20053;-77
2023/03/12 02:57:37;;;;;;;6.85;3.80;;;;;;;;;;5003976;28;20540;-77
2023/03/12 03:00:11;;;;;;;4.32;3.20;;;;;;;;;;4988274;28;20056;-77
2023/03/12 03:02:41;;;;;;;7.47;4.13;;;;;;;;;;4988374;28;20054;-78
2023/03/12 03:05:09;;;;;;;6.15;3.83;;;;;;;;;;4990491;28;20042;-77
2023/03/12 03:07:37;;;;;;;6.38;4.40;;;;;;;;;;4990961;28;20046;-77
2023/03/12 03:10:05;;;;;;;5.97;4.22;;;;;;;;;;4991979;28;20057;-77
2023/03/12 03:12:33;;;;;;;5.43;3.63;;;;;;;;;;5006778;28;20492;-77
2023/03/12 03:15:02;;;;;;;4.75;3.95;;;;;;;;;;4992059;28;20046;-77
2023/03/12 03:17:29;;;;;;;5.38;3.55;;;;;;;;;;5009434;28;20128;-77
2023/03/12 03:19:57;;;;;;;5.22;3.33;;;;;;;;;;4991863;28;20294;-77
2023/03/12 03:22:24;;;;;;;5.15;3.10;;;;;;;;;;4991591;28;20057;-78
2023/03/12 03:24:52;;;;;;;2.90;2.70;;;;;;;;;;5009600;28;20041;-77
2023/03/12 03:27:20;;;;;;;4.72;3.47;;;;;;;;;;4992042;28;20595;-77
2023/03/12 03:29:47;;;;;;;6.35;3.45;;;;;;;;;;5004118;28;20061;-78
2023/03/12 03:32:14;;;;;;;5.70;3.80;;;;;;;;;;4999405;28;20045;-77
2023/03/12 03:34:42;;;;;;;4.28;3.65;;;;;;;;;;4992235;28;20046;-77
2023/03/12 03:37:09;;;;;;;3.40;3.10;;;;;;;;;;5010039;28;20069;-78
2023/03/12 03:39:37;;;;;;;4.63;3.80;;;;;;;;;;5009035;28;20054;-77
2023/03/12 03:42:04;;;;;;;3.08;2.72;;;;;;;;;;4991535;28;20096;-77
2023/03/12 03:44:33;;;;;;;3.10;2.80;;;;;;;;;;4989760;28;20125;-77
2023/03/12 03:47:01;;;;;;;3.88;3.40;;;;;;;;;;4991476;28;20134;-77
2023/03/12 03:49:28;;;;;;;5.15;3.63;;;;;;;;;;5008742;28;20540;-77
2023/03/12 03:51:56;;;;;;;2.63;2.42;;;;;;;;;;4991487;28;20057;-77
2023/03/12 03:54:30;;;;;;;5.50;3.25;;;;;;;;;;4991680;28;20066;-77
2023/03/12 03:56:58;;;;;;;4.32;3.38;;;;;;;;;;4991387;28;20052;-78
2023/03/12 03:59:25;;;;;;;4.63;3.67;;;;;;;;;;4991033;28;20069;-77
2023/03/12 04:01:53;;;;;;;7.70;4.85;;;;;;;;;;4995390;28;20131;-77
2023/03/12 04:04:20;;;;;;;8.43;4.82;;;;;;;;;;5001973;28;20053;-77
2023/03/12 04:06:48;;;;;;;3.92;2.72;;;;;;;;;;5010747;28;20053;-77
2023/03/12 04:09:15;;;;;;;3.33;3.03;;;;;;;;;;5010678;28;20042;-77
2023/03/12 04:11:43;;;;;;;2.83;2.60;;;;;;;;;;5010784;28;20409;-77
2023/03/12 04:14:12;;;;;;;3.47;2.83;;;;;;;;;;5010881;28;20132;-77
2023/03/12 04:16:43;;;;;;;4.40;4.00;;;;;;;;;;4997543;28;20042;-77
2023/03/12 04:19:11;;;;;;;4.70;3.85;;;;;;;;;;4999242;28;20057;-77
2023/03/12 04:21:38;;;;;;;4.20;3.22;;;;;;;;;;5010156;28;20046;-77
2023/03/12 04:24:07;;;;;;;7.82;3.42;;;;;;;;;;5010220;28;20045;-77
2023/03/12 04:26:35;;;;;;;4.57;3.85;;;;;;;;;;5028267;28;20050;-77
2023/03/12 04:29:04;;;;;;;5.68;3.50;;;;;;;;;;5010067;28;20408;-77
2023/03/12 04:31:33;;;;;;;4.57;3.97;;;;;;;;;;5010237;28;20045;-77
2023/03/12 04:34:00;;;;;;;4.65;3.70;;;;;;;;;;5004007;28;20057;-77
2023/03/12 04:36:28;;;;;;;5.65;4.13;;;;;;;;;;4997913;28;20053;-77
2023/03/12 04:38:56;;;;;;;5.32;4.03;;;;;;;;;;4990421;28;20054;-77
2023/03/12 04:41:28;;;;;;;3.20;2.88;;;;;;;;;;4990306;28;20530;-77
2023/03/12 04:44:02;;;;;;;4.10;3.28;;;;;;;;;;4990592;28;20461;-77
2023/03/12 04:46:30;;;;;;;4.35;3.58;;;;;;;;;;4990618;28;20068;-77
2023/03/12 04:49:01;;;;;;;5.35;3.53;;;;;;;;;;4990412;28;20054;-77
2023/03/12 04:51:30;;;;;;;4.47;3.63;;;;;;;;;;4990185;28;20512;-77
2023/03/12 04:53:58;;;;;;;6.05;3.88;;;;;;;;;;4987707;28;20104;-77
2023/03/12 04:56:26;;;;;;;4.32;3.22;;;;;;;;;;4990077;28;20466;-77
2023/03/12 04:58:54;;;;;;;5.28;3.40;;;;;;;;;;4997437;28;20416;-77
2023/03/12 05:01:24;;;;;;;4.85;3.10;;;;;;;;;;4970968;28;20472;-77
2023/03/12 05:03:52;;;;;;;8.82;3.58;;;;;;;;;;4970243;28;20527;-77
2023/03/12 05:06:19;;;;;;;7.00;3.97;;;;;;;;;;4996222;28;20056;-77
2023/03/12 05:08:47;;;;;;;6.25;4.35;;;;;;;;;;4995235;28;20198;-78
2023/03/12 05:11:14;;;;;;;8.48;4.00;;;;;;;;;;4999797;28;20125;-78
2023/03/12 05:13:42;;;;;;;7.93;4.07;;;;;;;;;;4986958;28;20452;-77
2023/03/12 05:16:10;;;;;;;5.93;3.90;;;;;;;;;;4989962;28;20053;-78
2023/03/12 05:18:38;;;;;;;8.32;3.95;;;;;;;;;;5007442;28;20455;-77
2023/03/12 05:21:07;;;;;;;5.30;3.88;;;;;;;;;;5007273;28;20053;-78
2023/03/12 05:23:38;;;;;;;7.72;4.65;;;;;;;;;;4989624;28;20097;-77
2023/03/12 05:26:06;;;;;;;7.82;3.83;;;;;;;;;;5007497;28;20045;-77
2023/03/12 05:28:34;;;;;;;7.95;4.18;;;;;;;;;;4988682;28;20561;-77
2023/03/12 05:31:09;;;;;;;9.35;3.53;;;;;;;;;;4985770;28;20536;-77
2023/03/12 05:33:36;;;;;;;7.25;3.95;;;;;;;;;;5012197;28;20137;-77
2023/03/12 05:36:04;;;;;;;6.20;3.15;;;;;;;;;;4989296;28;20523;-77
2023/03/12 05:38:32;;;;;;;6.78;3.60;;;;;;;;;;4989502;28;20049;-77
2023/03/12 05:40:59;;;;;;;5.65;3.22;;;;;;;;;;4989062;28;20156;-76
2023/03/12 05:43:29;;;;;;;4.07;3.50;;;;;;;;;;4989063;28;20053;-77
2023/03/12 05:45:59;;;;;;;5.50;3.65;;;;;;;;;;4989306;28;20057;-77
2023/03/12 05:48:27;;;;;;;5.75;3.75;;;;;;;;;;4987299;28;20299;-77
2023/03/12 05:50:55;;;;;;;5.38;3.72;;;;;;;;;;5003866;28;20053;-77
2023/03/12 05:53:23;;;;;;;6.05;4.38;;;;;;;;;;5008562;28;20057;-77
2023/03/12 05:55:52;;;;;;;6.97;4.60;;;;;;;;;;5008548;28;20099;-77
2023/03/12 05:58:19;;;;;;;7.57;5.28;;;;;;;;;;5008899;28;20049;-77
2023/03/12 06:00:47;;;;;;;8.73;4.47;;;;;;;;;;5008688;28;20472;-77
2023/03/12 06:03:15;;;;;;;7.32;4.50;;;;;;;;;;5008555;28;20041;-77
2023/03/12 06:05:44;;;;;;;3.85;3.45;;;;;;;;;;4994151;28;20125;-77
2023/03/12 06:08:11;;;;;;;4.97;3.63;;;;;;;;;;5006832;28;20054;-77
2023/03/12 06:10:39;;;;;;;8.15;4.22;;;;;;;;;;4986431;28;20144;-77
2023/03/12 06:13:08;;;;;;;4.13;3.70;;;;;;;;;;4996722;28;20046;-77
2023/03/12 06:15:35;;;;;;;5.68;3.90;;;;;;;;;;4989081;28;20054;-77
2023/03/12 06:18:04;;;;;;;4.03;3.58;;;;;;;;;;4989100;28;20050;-78
2023/03/12 06:20:33;;;;;;;6.00;3.90;;;;;;;;;;5006419;28;20428;-77
2023/03/12 06:23:00;;;;;;;3.97;3.50;;;;;;;;;;4984994;28;20492;-77
2023/03/12 06:25:28;;;;;;;5.38;4.03;;;;;;;;;;4988562;28;20041;-77
2023/03/12 06:27:56;;;;;;;5.10;3.65;;;;;;;;;;4988749;28;20085;-77
2023/03/12 06:30:23;;;;;;;5.22;4.10;;;;;;;;;;5005980;28;20045;-77
2023/03/12 06:32:51;;;;;;;7.05;3.50;;;;;;;;;;5005778;28;20064;-77
2023/03/12 06:35:18;;;;;;;6.47;3.97;;;;;;;;;;5005988;28;20393;-77
2023/03/12 06:37:46;;;;;;;5.07;3.42;;;;;;;;;;5006126;28;20100;-77
2023/03/12 06:40:13;;;;;;;4.85;3.97;;;;;;;;;;5007646;28;20128;-77
2023/03/12 06:42:40;;;;;;;5.93;4.10;;;;;;;;;;5011856;28;20042;-77
2023/03/12 06:45:08;;;;;;;4.63;4.15;;;;;;;;;;5012648;28;20050;-77
2023/03/12 06:47:35;;;;;;;4.70;4.20;;;;;;;;;;4995867;28;20065;-78
2023/03/12 06:50:03;;;;;;;5.05;3.88;;;;;;;;;;5008663;28;20073;-77
2023/03/12 06:52:30;;;;;;;5.47;3.60;;;;;;;;;;5012371;28;20060;-77
2023/03/12 06:54:57;;;;;;;6.22;4.18;;;;;;;;;;5012743;28;20050;-77
2023/03/12 06:57:25;;;;;;;5.57;3.90;;;;;;;;;;5012746;28;20137;-77
2023/03/12 06:59:52;;;;;;;5.32;3.97;;;;;;;;;;5012978;28;20132;-77
2023/03/12 07:02:19;;;;;;;4.40;3.67;;;;;;;;;;5010585;28;20412;-77
2023/03/12 07:04:47;;;;;;;5.00;4.13;;;;;;;;;;5013836;28;20069;-76
2023/03/12 07:07:15;;;;;;;4.47;3.92;;;;;;;;;;5012582;28;20463;-77
2023/03/12 07:09:43;;;;;;;4.07;3.67;;;;;;;;;;5012693;28;20041;-78
2023/03/12 07:12:11;;;;;;;5.05;3.90;;;;;;;;;;5012096;28;20533;-77
2023/03/12 07:14:38;;;;;;;4.35;3.95;;;;;;;;;;5012173;28;20058;-78
2023/03/12 07:17:05;;;;;;;4.72;3.97;;;;;;;;;;5012509;28;20054;-77
2023/03/12 07:19:32;;;;;;;5.65;3.95;;;;;;;;;;5012493;28;20112;-77
2023/03/12 07:22:00;;;;;;;5.15;3.92;;;;;;;;;;5014870;28;20037;-77
2023/03/12 07:24:27;;;;;;;4.80;3.63;;;;;;;;;;5012509;28;20351;-78
2023/03/12 07:26:55;;;;;;;4.63;4.18;;;;;;;;;;5012181;28;20038;-77
2023/03/12 07:29:22;;;;;;;5.10;4.00;;;;;;;;;;5012515;28;20057;-76
2023/03/12 07:31:49;;;;;;;4.88;3.80;;;;;;;;;;5013793;28;20045;-77
2023/03/12 07:34:17;;;;;;;6.05;4.10;;;;;;;;;;4997395;28;20060;-77
2023/03/12 07:36:44;;;;;;;5.70;3.90;;;;;;;;;;5013394;28;20108;-77
2023/03/12 07:39:12;;;;;;;4.22;3.72;;;;;;;;;;5012553;28;20476;-77
2023/03/12 07:41:40;;;;;;;6.47;3.90;;;;;;;;;;5012421;28;20448;-77
2023/03/12 07:44:09;;;;;;;5.20;4.13;;;;;;;;;;4990516;28;20046;-77
2023/03/12 07:46:37;;;;;;;7.05;4.18;;;;;;;;;;5002957;28;20049;-76
2023/03/12 07:49:04;;;;;;;4.38;3.80;;;;;;;;;;5004816;28;20045;-77
2023/03/12 07:51:31;;;;;;;10.10;3.95;;;;;;;;;;4982930;28;20503;-77
2023/03/12 07:53:59;;;;;;;5.20;4.70;;;;;;;;;;5001458;28;20536;-75
2023/03/12 07:56:26;;;;;;;4.65;3.92;;;;;;;;;;5012629;28;20044;-76
2023/03/12 07:58:54;;;;;;;4.07;3.67;;;;;;;;;;5015099;28;20045;-76
2023/03/12 08:01:24;;;;;;;4.95;3.95;;;;;;;;;;5027839;28;20045;-75
2023/03/12 08:03:51;;;;;;;5.18;4.18;;;;;;;;;;5027776;28;20056;-76
2023/03/12 08:06:19;;;;;;;4.35;3.95;;;;;;;;;;5013222;28;20439;-77
2023/03/12 08:08:47;;;;;;;6.03;3.50;;;;;;;;;;5007945;28;20042;-77
2023/03/12 08:11:15;;;;;;;4.85;4.15;;;;;;;;;;5007022;28;20284;-76
2023/03/12 08:13:43;;;;;;;4.20;3.80;;;;;;;;;;5007907;28;20042;-77
2023/03/12 08:16:10;;;;;;;5.28;4.07;;;;;;;;;;5011725;28;20616;-76
2023/03/12 08:18:38;;;;;;;5.53;4.38;;;;;;;;;;5017796;28;20463;-76
2023/03/12 08:21:05;;;;;;;5.85;4.40;;;;;;;;;;5015535;28;20404;-77
2023/03/12 08:23:32;;;;;;;24.70;21.27;;;;;;;;;;5013163;28;20054;-76
2023/03/12 08:26:00;;;;;;;11.18;8.30;;;;;;;;;;5007784;28;20085;-77
2023/03/12 08:28:27;;;;;;;4.28;3.88;;;;;;;;;;5007590;28;20037;-76
2023/03/12 08:30:55;;;;;;;5.00;4.10;;;;;;;;;;5029173;28;20057;-77
2023/03/12 08:33:23;;;;;;;4.35;3.80;;;;;;;;;;5010202;28;20738;-77
2023/03/12 08:35:50;;;;;;;4.15;3.78;;;;;;;;;;5008548;28;20443;-77
2023/03/12 08:38:18;;;;;;;4.85;3.95;;;;;;;;;;5009099;28;20050;-76
2023/03/12 08:40:45;;;;;;;4.45;4.05;;;;;;;;;;5009008;28;20660;-77
2023/03/12 08:43:12;;;;;;;3.40;3.10;;;;;;;;;;5008288;28;20052;-76
2023/03/12 08:45:40;;;;;;;3.83;3.30;;;;;;;;;;5009120;28;20054;-77
2023/03/12 08:48:07;;;;;;;4.60;3.25;;;;;;;;;;5005777;28;20050;-77
2023/03/12 08:50:35;;;;;;;3.20;2.85;;;;;;;;;;5006992;28;20088;-76
2023/03/12 08:53:02;;;;;;;4.45;3.65;;;;;;;;;;5007712;28;20081;-74
2023/03/12 08:55:29;;;;;;;3.75;3.17;;;;;;;;;;5009623;28;20042;-76
2023/03/12 08:57:57;;;;;;;6.78;4.55;;;;;;;;;;5007742;28;20133;-76
2023/03/12 09:00:24;;;;;;;4.22;3.33;;;;;;;;;;5006837;28;20053;-76
2023/03/12 09:02:53;;;;;;;3.22;2.92;;;;;;;;;;5001008;28;20041;-77
2023/03/12 09:05:20;;;;;;;44.92;28.95;;;;;;;;;;4995480;28;20053;-76
2023/03/12 09:07:48;;;;;;;11.57;7.38;;;;;;;;;;4979620;28;20034;-76
2023/03/12 09:10:17;;;;;;;6.53;4.00;;;;;;;;;;4990135;28;20396;-76
2023/03/12 09:12:44;;;;;;;10.07;8.73;;;;;;;;;;5004400;28;20519;-75
2023/03/12 09:15:12;;;;;;;4.68;3.78;;;;;;;;;;5002844;28;20104;-75
2023/03/12 09:17:39;;;;;;;3.58;3.20;;;;;;;;;;5003252;28;20050;-76
2023/03/12 09:20:08;;;;;;;5.13;4.22;;;;;;;;;;4988546;28;20054;-79
2023/03/12 09:22:36;;;;;;;3.83;3.50;;;;;;;;;;5005366;28;20050;-75
2023/03/12 09:25:04;;;;;;;4.53;3.47;;;;;;;;;;4987288;28;20042;-76
2023/03/12 09:27:35;;;;;;;4.70;4.30;;;;;;;;;;5007326;28;20041;-75
2023/03/12 09:30:02;;;;;;;9.17;4.30;;;;;;;;;;5004346;28;20041;-76
2023/03/12 09:32:30;;;;;;;4.53;3.80;;;;;;;;;;5005369;28;20050;-75
2023/03/12 09:34:58;;;;;;;3.33;3.03;;;;;;;;;;5006793;28;20120;-75
2023/03/12 09:37:25;;;;;;;3.78;3.10;;;;;;;;;;5004530;28;20056;-76
2023/03/12 09:39:53;;;;;;;4.68;3.10;;;;;;;;;;5005906;28;20124;-78
2023/03/12 09:42:26;;;;;;;3.00;2.80;;;;;;;;;;5001185;28;20042;-77
2023/03/12 09:44:55;;;;;;;3.15;2.75;;;;;;;;;;5010450;28;20050;-78
2023/03/12 09:47:22;;;;;;;3.88;2.92;;;;;;;;;;5009483;28;20045;-76
2023/03/12 09:49:53;;;;;;;4.32;3.20;;;;;;;;;;5005862;28;20155;-76
2023/03/12 09:52:24;;;;;;;3.17;2.93;;;;;;;;;;5006613;28;20113;-78
2023/03/12 09:54:58;;;;;;;4.07;3.22;;;;;;;;;;5008993;28;20042;-77
2023/03/12 09:57:28;;;;;;;3.53;3.22;;;;;;;;;;5007456;28;20043;-78
2023/03/12 09:59:56;;;;;;;4.25;3.38;;;;;;;;;;4998068;28;20058;-80
2023/03/12 10:02:42;;;;;;;3.55;3.25;;;;;;;;;;5009028;28;20050;-78
2023/03/12 10:05:29;;;;;;;11.57;7.10;;;;;;;;;;4985599;28;20038;-79
2023/03/12 10:07:59;;;;;;;3.25;2.78;;;;;;;;;;5004113;28;20045;-80
2023/03/12 10:10:51;;;;;;;4.10;3.47;;;;;;;;;;5003935;28;20100;-77
2023/03/12 10:13:27;;;;;;;7.63;3.63;;;;;;;;;;5005850;28;20056;-80
2023/03/12 10:16:03;;;;;;;4.50;3.05;;;;;;;;;;5005688;28;20042;-79
2023/03/12 10:18:31;;;;;;;13.13;11.73;;;;;;;;;;5007492;28;20137;-76
2023/03/12 10:21:11;;;;;;;3.85;3.38;;;;;;;;;;4989897;28;20046;-79
2023/03/12 10:23:52;;;;;;;5.32;4.57;;;;;;;;;;5006066;28;20042;-76
2023/03/12 10:26:32;;;;;;;4.45;3.80;;;;;;;;;;5009595;28;20128;-76
2023/03/12 10:29:05;;;;;;;4.35;3.83;;;;;;;;;;5005128;28;20104;-78
2023/03/12 10:31:40;;;;;;;13.00;11.88;;;;;;;;;;4997562;28;20113;-80
2023/03/12 10:34:14;;;;;;;4.95;4.30;;;;;;;;;;5006608;28;20131;-76
2023/03/12 10:36:41;;;;;;;5.93;4.70;;;;;;;;;;5008263;28;20121;-79
2023/03/12 10:39:16;;;;;;;4.55;4.15;;;;;;;;;;4994626;28;20054;-77
2023/03/12 10:41:45;;;;;;;4.85;4.35;;;;;;;;;;5008622;28;20476;-77
2023/03/12 10:44:22;;;;;;;9.93;5.53;;;;;;;;;;5004908;28;20049;-78
2023/03/12 10:46:59;;;;;;;4.70;4.15;;;;;;;;;;5006466;28;20038;-78
2023/03/12 10:50:26;;;;;;;4.95;3.88;;;;;;;;;;5007819;28;20049;-84
2023/03/12 10:53:13;;;;;;;4.55;4.15;;;;;;;;;;5015450;28;20583;-82
2023/03/12 10:56:23;;;;;;;4.50;3.60;;;;;;;;;;5013814;28;20045;-83
2023/03/12 10:59:22;;;;;;;4.38;3.72;;;;;;;;;;5008705;28;20106;-86
2023/03/12 11:02:28;;;;;;;4.18;3.78;;;;;;;;;;5011333;28;20164;-84
2023/03/12 11:05:46;;;;;;;7.47;6.78;;;;;;;;;;5006102;28;20129;-84
2023/03/12 11:08:26;;;;;;;3.85;3.50;;;;;;;;;;5038656;28;20288;-83
2023/03/12 11:11:04;;;;;;;3.63;3.33;;;;;;;;;;5026752;28;20094;-85
2023/03/12 11:14:08;;;;;;;3.90;3.30;;;;;;;;;;5035310;28;20057;-85
2023/03/12 11:17:21;;;;;;;3.75;3.42;;;;;;;;;;5013424;28;20049;-84
2023/03/12 11:23:35;;;;;;;6.35;4.03;;;;;;;;;;4984798;28;20050;-84
2023/03/12 11:26:13;;;;;;;4.95;3.90;;;;;;;;;;5011271;28;20069;-84
2023/03/12 11:32:10;;;;;;;7.25;4.30;;;;;;;;;;5014453;28;20042;-84
2023/03/12 11:34:48;;;;;;;4.55;3.92;;;;;;;;;;5011649;28;20045;-85
2023/03/12 11:37:24;;;;;;;5.53;5.03;;;;;;;;;;5017142;28;20076;-82
2023/03/12 11:40:11;;;;;;;5.60;4.43;;;;;;;;;;5031054;28;20045;-90
2023/03/12 11:43:01;;;;;;;5.43;4.00;;;;;;;;;;5028634;28;20045;-86
2023/03/12 11:45:49;;;;;;;4.57;4.13;;;;;;;;;;5019495;28;20514;-84
2023/03/12 11:48:40;;;;;;;6.95;4.70;;;;;;;;;;5001742;28;20081;-85
2023/03/12 11:51:32;;;;;;;5.28;4.78;;;;;;;;;;5009064;28;20070;-84
2023/03/12 11:54:16;;;;;;;5.35;4.75;;;;;;;;;;5011460;28;20076;-85
2023/03/12 11:57:14;;;;;;;5.75;5.15;;;;;;;;;;5004049;28;20097;-84
2023/03/12 12:00:05;;;;;;;5.38;4.88;;;;;;;;;;5005323;28;20054;-84
2023/03/12 12:02:45;;;;;;;5.13;4.60;;;;;;;;;;5015023;28;20042;-85
2023/03/12 12:05:20;;;;;;;7.10;5.38;;;;;;;;;;5010771;28;20052;-83
2023/03/12 12:08:00;;;;;;;4.75;4.15;;;;;;;;;;5019310;23;20365;-70
2023/03/12 12:10:28;;;;;;;44.78;29.38;;;;;;;;;;5016499;28;20078;-71
2023/03/12 12:12:58;;;;;;;5.72;4.35;;;;;;;;;;5014333;28;20061;-71
2023/03/12 12:15:33;;;;;;;5.55;4.60;;;;;;;;;;5026764;28;20053;-71
2023/03/12 12:18:18;;;;;;;5.55;4.30;;;;;;;;;;5013017;22;20133;-82
2023/03/12 12:21:18;;;;;;;6.47;4.88;;;;;;;;;;4978996;28;20401;-83
2023/03/12 12:24:07;;;;;;;5.47;4.88;;;;;;;;;;4976670;28;20051;-83
2023/03/12 12:26:52;;;;;;;5.07;4.55;;;;;;;;;;4976843;28;20319;-83
2023/03/12 12:29:52;;;;;;;5.35;4.80;;;;;;;;;;4979999;28;20046;-85
2023/03/12 12:32:47;;;;;;;5.38;4.90;;;;;;;;;;4989516;28;20037;-84
2023/03/12 12:35:27;;;;;;;7.05;5.20;;;;;;;;;;4991443;28;20073;-84
2023/03/12 12:38:28;;;;;;;6.47;5.75;;;;;;;;;;4979065;28;20081;-81
2023/03/12 12:41:11;;;;;;;5.43;4.88;;;;;;;;;;4978411;28;20078;-83
2023/03/12 12:43:40;;;;;;;5.93;5.32;;;;;;;;;;4978322;28;20082;-83
2023/03/12 12:46:31;;;;;;;4.82;4.43;;;;;;;;;;4977233;28;20058;-82
2023/03/12 12:49:11;;;;;;;6.55;5.85;;;;;;;;;;4979387;28;20046;-82
2023/03/12 12:51:52;;;;;;;6.60;5.55;;;;;;;;;;4975084;28;20586;-82
2023/03/12 12:54:33;;;;;;;6.38;4.97;;;;;;;;;;4978337;28;20513;-82
2023/03/12 12:57:13;;;;;;;5.35;4.85;;;;;;;;;;4977393;28;20142;-83
2023/03/12 13:00:12;;;;;;;11.73;7.15;;;;;;;;;;4981485;28;20081;-82
2023/03/12 13:03:07;;;;;;;18.63;16.50;;;;;;;;;;4963909;28;20058;-84
2023/03/12 13:06:02;;;;;;;6.97;5.60;;;;;;;;;;4977434;28;20047;-82
2023/03/12 13:08:55;;;;;;;5.97;5.38;;;;;;;;;;4977991;28;20101;-82
2023/03/12 13:11:51;;;;;;;6.18;5.57;;;;;;;;;;4974142;28;20101;-82
2023/03/12 13:18:05;;;;;;;6.20;5.53;;;;;;;;;;4975191;28;20157;-87
2023/03/12 13:21:11;;;;;;;8.15;5.50;;;;;;;;;;4956642;28;20311;-85
2023/03/12 13:24:02;;;;;;;7.40;5.68;;;;;;;;;;4954446;28;20050;-86
2023/03/12 13:26:51;;;;;;;6.88;6.18;;;;;;;;;;4952605;29;20051;-85
2023/03/12 13:29:19;;;;;;;5.55;5.05;;;;;;;;;;4961666;29;20429;-82
2023/03/12 13:31:46;;;;;;;6.55;5.95;;;;;;;;;;4959261;28;20055;-83
2023/03/12 13:34:17;;;;;;;6.38;5.05;;;;;;;;;;4961494;28;20078;-82
2023/03/12 13:36:46;;;;;;;9.05;6.70;;;;;;;;;;4964043;28;20047;-82
2023/03/12 13:39:16;;;;;;;7.78;6.97;;;;;;;;;;4964998;28;20109;-85
2023/03/12 13:41:51;;;;;;;8.07;6.63;;;;;;;;;;4966419;28;20082;-83
2023/03/12 13:44:38;;;;;;;6.40;5.28;;;;;;;;;;4966798;28;20039;-84
2023/03/12 13:47:10;;;;;;;5.28;4.70;;;;;;;;;;4967136;28;20114;-83
2023/03/12 13:49:52;;;;;;;7.28;5.95;;;;;;;;;;4971881;28;20133;-83
2023/03/12 13:52:19;;;;;;;;;;;;;;;;;;4970594;28;20043;-83
2023/03/12 13:54:57;;;;;;;6.22;4.95;;;;;;;;;;4980374;28;19910;-85
2023/03/12 13:57:35;;;;;;;6.28;4.95;;;;;;;;;;4994095;28;20247;-87
2023/03/12 14:00:11;;;;;;;5.53;4.63;;;;;;;;;;4991613;28;20047;-85
2023/03/12 14:02:45;;;;;;;5.00;4.55;;;;;;;;;;4971734;28;20054;-85
2023/03/12 14:05:15;;;;;;;9.13;6.03;;;;;;;;;;4972007;28;20047;-85
2023/03/12 14:07:48;;;;;;;7.25;5.65;;;;;;;;;;4966722;28;20130;-85
2023/03/12 14:10:36;;;;;;;26.02;20.35;;;;;;;;;;4969274;28;20050;-85
2023/03/12 14:13:20;;;;;;;6.70;6.03;;;;;;;;;;4972354;28;20744;-84
2023/03/12 14:15:53;;;;;;;6.68;5.95;;;;;;;;;;4957803;28;20061;-83
2023/03/12 14:18:22;;;;;;;6.35;5.72;;;;;;;;;;4955185;28;20043;-83
2023/03/12 14:20:53;;;;;;;7.28;5.03;;;;;;;;;;4964435;28;20050;-84
2023/03/12 14:23:21;;;;;;;6.53;5.45;;;;;;;;;;4967460;28;20096;-84
2023/03/12 14:25:49;;;;;;;8.15;5.40;;;;;;;;;;4953208;28;20062;-85
2023/03/12 14:28:18;;;;;;;7.15;5.75;;;;;;;;;;4957621;28;20061;-86
2023/03/12 14:30:54;;;;;;;5.30;4.80;;;;;;;;;;4961947;28;20130;-84
2023/03/12 14:33:21;;;;;;;5.57;4.28;;;;;;;;;;4968916;28;20066;-84
2023/03/12 14:35:58;;;;;;;4.82;4.32;;;;;;;;;;4960291;28;20098;-84
2023/03/12 14:38:40;;;;;;;7.15;5.10;;;;;;;;;;4971795;28;20130;-84
2023/03/12 14:41:12;;;;;;;5.32;4.60;;;;;;;;;;4967130;28;20054;-85
2023/03/12 14:43:41;;;;;;;5.05;4.55;;;;;;;;;;4968170;28;20385;-84
2023/03/12 14:46:29;;;;;;;5.53;5.00;;;;;;;;;;4972074;28;20582;-83
2023/03/12 14:48:56;;;;;;;5.35;4.85;;;;;;;;;;4963719;28;20408;-85
2023/03/12 14:51:28;;;;;;;6.05;4.60;;;;;;;;;;4972512;28;20050;-84
2023/03/12 14:54:01;;;;;;;7.95;5.05;;;;;;;;;;4972339;28;20140;-85
2023/03/12 14:56:31;;;;;;;6.13;5.00;;;;;;;;;;4972376;28;20098;-84
2023/03/12 14:59:00;;;;;;;5.07;4.38;;;;;;;;;;4969035;28;20050;-85
2023/03/12 15:01:29;;;;;;;7.47;4.63;;;;;;;;;;4973966;28;20055;-85
2023/03/12 15:04:00;;;;;;;7.30;5.25;;;;;;;;;;4975252;28;20053;-84
2023/03/12 15:06:32;;;;;;;4.55;4.15;;;;;;;;;;4972613;28;20132;-84
2023/03/12 15:09:03;;;;;;;8.02;4.93;;;;;;;;;;4976062;28;20049;-85
2023/03/12 15:11:32;;;;;;;4.82;4.35;;;;;;;;;;4976068;28;20053;-84
2023/03/12 15:14:07;;;;;;;6.25;4.03;;;;;;;;;;4958012;28;20065;-85
2023/03/12 15:16:35;;;;;;;6.03;4.38;;;;;;;;;;4957444;28;20047;-84
2023/03/12 15:19:06;;;;;;;6.07;4.05;;;;;;;;;;4972926;28;20049;-85
2023/03/12 15:21:34;;;;;;;6.10;4.50;;;;;;;;;;4988746;28;20050;-87
2023/03/12 15:24:05;;;;;;;5.00;4.50;;;;;;;;;;4989670;28;20039;-85